This is the latest recevied weather packets stored in our database for station/object ALAKES. If no packets are shown the sender has not sent any weather packets the latest 10 day(s).
| Time | Temp. | Humidity | Pressure | Rain* | Wind** | Luminosity | Snow |
|---|---|---|---|---|---|---|---|
| 1787805579 | 17.22° C | 28% | - | 0 mm | - | - | - |
| 1787804953 | 16.67° C | 27% | - | 0 mm | - | - | - |
| 1787804383 | 16.11° C | 29% | - | 0 mm | - | - | - |
| 1787804325 | 16.11° C | 29% | - | 0 mm | - | - | - |
| 1787803705 | 15.56° C | 34% | - | 0 mm | - | - | - |
| 1787803075 | 14.44° C | 41% | - | 0 mm | - | - | - |
| 1787802447 | 15° C | 36% | - | 0 mm | - | - | - |
| 1787801824 | 13.89° C | 42% | - | 0 mm | - | - | - |
| 1787801190 | 13.89° C | 43% | - | 0 mm | - | - | - |
| 1787800554 | 13.89° C | 47% | - | 0 mm | - | - | - |
| 1787799928 | 14.44° C | 45% | - | 0 mm | - | - | - |
| 1787799294 | 14.44° C | 44% | - | 0 mm | - | - | - |
| 1787798670 | 15° C | 43% | - | 0 mm | - | - | - |
| 1787798040 | 15.56° C | 41% | - | 0 mm | - | - | - |
| 1787797498 | 15.56° C | 39% | - | 0 mm | - | - | - |
| 1787797406 | 15.56° C | 39% | - | 0 mm | - | - | - |
| 1787796768 | 16.67° C | 38% | - | 0 mm | - | - | - |
| 1787796130 | 17.22° C | 33% | - | 0 mm | - | - | - |
| 1787795496 | 20° C | 21% | - | 0 mm | - | - | - |
| 1787794868 | 20° C | 20% | - | 0 mm | - | - | - |
| 1787794232 | 20° C | 21% | - | 0 mm | - | - | - |
| 1787793611 | 20° C | 20% | - | 0 mm | - | - | - |
| 1787793013 | 20° C | 20% | - | 0 mm | - | - | - |
| 1787792971 | 20° C | 20% | - | 0 mm | - | - | - |
| 1787792341 | 20.56° C | - | - | 0 mm | - | - | - |
* Rain latest 24 hours (hover to see other rain measurements)
** Current wind speed in m/s (hover to see current wind gust speed)